createdAt,value
2019-02-26T00:05:03.381Z,3.92
2019-02-26T00:10:08.969Z,2.47
2019-02-26T00:15:12.913Z,2.65
2019-02-26T00:20:17.620Z,2.37
2019-02-26T00:25:21.511Z,4.20
2019-02-26T00:30:24.984Z,2.95
2019-02-26T00:35:28.466Z,2.45
2019-02-26T00:40:32.706Z,2.43
2019-02-26T00:45:39.039Z,3.25
2019-02-26T00:50:42.325Z,2.02
2019-02-26T00:55:45.803Z,2.47
2019-02-26T01:00:49.274Z,2.00
2019-02-26T01:05:52.744Z,3.47
2019-02-26T01:10:57.062Z,5.22
2019-02-26T01:16:01.420Z,2.70
2019-02-26T01:21:04.958Z,2.77
2019-02-26T01:26:10.053Z,3.08
2019-02-26T01:31:13.634Z,2.90
2019-02-26T01:36:19.165Z,2.90
2019-02-26T01:41:24.545Z,2.25
2019-02-26T01:46:27.499Z,2.10
2019-02-26T01:51:30.970Z,2.63
2019-02-26T01:56:36.518Z,2.40
2019-02-26T02:01:42.075Z,2.00
2019-02-26T02:06:44.837Z,2.65
2019-02-26T02:11:48.307Z,2.50
2019-02-26T02:16:51.777Z,4.03
2019-02-26T02:21:56.044Z,2.22
2019-02-26T02:27:00.450Z,2.83
2019-02-26T02:32:05.079Z,2.02
2019-02-26T02:37:09.124Z,2.30
2019-02-26T02:42:14.143Z,2.00
2019-02-26T02:47:17.812Z,2.47
2019-02-26T02:52:21.288Z,2.98
2019-02-26T02:57:26.780Z,2.03
2019-02-26T03:02:29.968Z,1.93
2019-02-26T03:07:33.439Z,2.33
2019-02-26T03:12:36.913Z,2.62
2019-02-26T03:17:40.386Z,2.47
2019-02-26T03:22:48.696Z,1.87
2019-02-26T03:27:49.059Z,1.72
2019-02-26T03:32:58.429Z,2.40
2019-02-26T03:37:58.928Z,2.02
2019-02-26T03:43:04.501Z,1.87
2019-02-26T03:48:08.169Z,2.00
2019-02-26T03:53:11.649Z,2.50
2019-02-26T03:58:15.128Z,2.20
2019-02-26T04:03:18.789Z,2.35
2019-02-26T04:08:24.296Z,2.17
2019-02-26T04:13:27.460Z,1.93
2019-02-26T04:18:34.163Z,2.07
2019-02-26T04:23:38.950Z,1.65
2019-02-26T04:28:50.203Z,1.90
2019-02-26T04:34:08.547Z,2.03
2019-02-26T04:39:34.086Z,1.85
2019-02-26T04:44:42.714Z,1.70
2019-02-26T04:49:46.184Z,2.17
2019-02-26T04:54:49.662Z,3.10
2019-02-26T04:59:55.485Z,7.72
2019-02-26T05:04:58.337Z,2.50
2019-02-26T05:10:02.312Z,4.53
2019-02-26T05:15:11.497Z,2.60
2019-02-26T05:20:15.485Z,1.60
2019-02-26T05:25:19.779Z,1.87
2019-02-26T05:30:22.918Z,2.33
2019-02-26T05:35:26.373Z,3.17
2019-02-26T05:40:29.847Z,1.82
2019-02-26T05:45:35.659Z,1.87
2019-02-26T05:50:40.869Z,2.40
2019-02-26T05:55:47.085Z,2.40
2019-02-26T06:00:48.951Z,1.87
2019-02-26T06:05:54.886Z,2.13
2019-02-26T06:10:57.651Z,1.40
2019-02-26T06:16:02.276Z,1.67
2019-02-26T06:21:06.356Z,1.82
2019-02-26T06:26:14.158Z,1.22
2019-02-26T06:31:17.478Z,1.95
2019-02-26T06:36:21.510Z,1.80
2019-02-26T06:41:25.517Z,2.72
2019-02-26T06:46:31.250Z,2.42
2019-02-26T06:51:34.216Z,1.90
2019-02-26T06:56:41.392Z,2.27
2019-02-26T07:01:42.918Z,1.77
2019-02-26T07:06:46.403Z,1.60
2019-02-26T07:11:49.892Z,2.83
2019-02-26T07:16:53.396Z,2.30
2019-02-26T07:21:56.883Z,1.70
2019-02-26T07:27:02.018Z,1.97
2019-02-26T07:32:05.581Z,1.77
2019-02-26T07:37:11.148Z,2.10
2019-02-26T07:42:16.496Z,3.45
2019-02-26T07:47:19.505Z,10.87
2019-02-26T07:52:24.197Z,7.47
2019-02-26T07:57:28.204Z,8.63
2019-02-26T08:02:32.522Z,11.43
2019-02-26T08:07:36.912Z,8.03
2019-02-26T08:12:42.587Z,7.90
2019-02-26T08:17:48.342Z,7.50
2019-02-26T08:22:51.512Z,9.23
2019-02-26T08:27:58.319Z,6.37
2019-02-26T08:33:04.315Z,6.10
2019-02-26T08:38:06.498Z,4.93
2019-02-26T08:43:09.983Z,7.53
2019-02-26T08:48:14.945Z,4.80
2019-02-26T08:53:19.743Z,5.33
2019-02-26T08:58:25.716Z,5.30
2019-02-26T09:03:29.112Z,3.40
2019-02-26T09:08:33.067Z,4.43
2019-02-26T09:13:38.858Z,2.62
2019-02-26T09:18:43.034Z,2.93
2019-02-26T09:23:49.499Z,3.13
2019-02-26T09:28:52.421Z,3.87
2019-02-26T09:33:56.949Z,3.33
2019-02-26T09:39:00.446Z,4.07
2019-02-26T09:44:06.569Z,5.07
2019-02-26T09:49:12.102Z,3.30
2019-02-26T09:54:15.162Z,3.40
2019-02-26T09:59:19.573Z,2.17
2019-02-26T10:04:24.293Z,2.60
2019-02-26T10:09:29.142Z,4.33
2019-02-26T10:14:33.515Z,4.10
2019-02-26T10:19:38.726Z,2.47
2019-02-26T10:24:43.038Z,2.80
2019-02-26T10:29:47.545Z,2.85
2019-02-26T10:34:51.679Z,4.40
2019-02-26T10:39:55.225Z,3.80
2019-02-26T10:44:58.699Z,2.52
2019-02-26T10:50:02.190Z,3.20
2019-02-26T10:55:07.686Z,2.50
2019-02-26T11:00:25.271Z,5.23
2019-02-26T11:05:28.036Z,5.20
2019-02-26T11:10:32.050Z,8.33
2019-02-26T11:15:36.077Z,8.75
2019-02-26T11:20:39.673Z,9.53
2019-02-26T11:25:43.147Z,9.53
2019-02-26T11:30:49.046Z,7.17
2019-02-26T11:35:51.825Z,9.28
2019-02-26T11:40:55.302Z,6.20
2019-02-26T11:45:59.718Z,5.58
2019-02-26T11:51:04.158Z,6.63
2019-02-26T11:56:07.696Z,5.65
2019-02-26T12:01:11.178Z,5.45
2019-02-26T12:06:14.650Z,6.60
2019-02-26T12:11:20.314Z,5.37
2019-02-26T12:16:23.320Z,5.92
2019-02-26T12:21:28.070Z,6.30
2019-02-26T12:26:32.000Z,6.30
2019-02-26T12:31:36.968Z,7.35
2019-02-26T12:36:40.668Z,7.33
2019-02-26T12:41:45.232Z,10.20
2019-02-26T12:46:51.148Z,12.40
2019-02-26T12:51:56.764Z,12.47
2019-02-26T12:57:00.623Z,9.30
2019-02-26T13:07:10.142Z,12.23
2019-02-26T13:12:17.147Z,7.40
2019-02-26T13:17:21.107Z,8.23
2019-02-26T13:22:24.016Z,7.20
2019-02-26T13:27:27.489Z,6.50
2019-02-26T13:32:32.390Z,5.95
2019-02-26T13:37:40.547Z,6.00
2019-02-26T13:42:41.365Z,5.10
2019-02-26T13:47:45.072Z,6.15
2019-02-26T13:52:48.537Z,5.17
2019-02-26T13:57:52.016Z,4.40
2019-02-26T14:02:55.494Z,5.67
2019-02-26T14:07:58.966Z,4.80
2019-02-26T14:13:03.829Z,3.95
2019-02-26T14:18:07.471Z,4.70
2019-02-26T14:23:10.946Z,4.55
2019-02-26T14:28:14.418Z,4.47
2019-02-26T14:33:17.889Z,4.10
2019-02-26T14:38:21.363Z,2.55
2019-02-26T14:43:24.844Z,5.15
2019-02-26T14:48:28.314Z,3.27
2019-02-26T14:53:31.786Z,4.30
2019-02-26T14:58:35.264Z,4.08
2019-02-26T15:03:38.739Z,4.25
2019-02-26T15:08:42.220Z,3.40
2019-02-26T15:13:45.695Z,3.77
2019-02-26T15:18:49.174Z,3.60
2019-02-26T15:23:52.649Z,4.70
2019-02-26T15:28:56.122Z,2.80
2019-02-26T15:33:59.594Z,4.77
2019-02-26T15:39:03.243Z,2.67
2019-02-26T15:44:06.720Z,2.70
2019-02-26T15:49:10.190Z,4.23
2019-02-26T15:54:13.661Z,4.13
2019-02-26T15:59:17.136Z,2.37
2019-02-26T16:04:20.606Z,2.37
2019-02-26T16:09:24.080Z,2.77
2019-02-26T16:14:27.549Z,3.20
2019-02-26T16:19:31.021Z,2.60
2019-02-26T16:24:34.494Z,2.30
2019-02-26T16:29:37.972Z,2.67
2019-02-26T16:34:41.455Z,1.67
2019-02-26T16:39:44.930Z,1.47
2019-02-26T16:44:48.404Z,3.90
2019-02-26T16:49:51.878Z,3.00
2019-02-26T16:54:55.351Z,4.90
2019-02-26T16:59:58.831Z,3.60
2019-02-26T17:05:02.300Z,1.80
2019-02-26T17:10:09.149Z,5.27
2019-02-26T17:15:18.302Z,4.50
2019-02-26T17:20:22.459Z,2.77
2019-02-26T17:25:28.641Z,5.60
2019-02-26T17:30:31.978Z,2.77
2019-02-26T17:35:35.637Z,3.72
2019-02-26T17:40:39.125Z,6.15
2019-02-26T17:45:42.614Z,2.05
2019-02-26T17:50:46.621Z,3.20
2019-02-26T17:55:50.177Z,1.98
2019-02-26T18:00:55.535Z,3.02
2019-02-26T18:05:59.020Z,3.20
2019-02-26T18:11:02.514Z,2.08
2019-02-26T18:16:09.156Z,3.12
2019-02-26T18:21:11.231Z,3.67
2019-02-26T18:26:17.603Z,3.72
2019-02-26T18:31:26.298Z,1.72
2019-02-26T18:36:25.147Z,2.05
2019-02-26T18:41:30.464Z,2.25
2019-02-26T18:46:34.241Z,1.98
2019-02-26T18:51:37.745Z,2.58
2019-02-26T18:56:43.523Z,5.33
2019-02-26T19:01:47.009Z,5.30
2019-02-26T19:06:50.508Z,2.40
2019-02-26T19:11:55.563Z,2.33
2019-02-26T19:16:59.227Z,2.27
2019-02-26T19:22:02.720Z,2.52
2019-02-26T19:27:06.279Z,3.17
2019-02-26T19:32:09.780Z,2.67
2019-02-26T19:37:13.253Z,2.50
2019-02-26T19:42:17.896Z,2.02
2019-02-26T19:47:22.747Z,3.87
2019-02-26T19:52:26.890Z,1.90
2019-02-26T19:57:30.914Z,2.83
2019-02-26T20:02:34.413Z,2.43
2019-02-26T20:07:37.890Z,2.73
2019-02-26T20:12:41.440Z,3.53
2019-02-26T20:17:48.891Z,3.08
2019-02-26T20:22:50.115Z,3.83
2019-02-26T20:27:55.172Z,5.35
2019-02-26T20:32:58.782Z,4.67
2019-02-26T20:38:02.257Z,4.17
2019-02-26T20:43:05.750Z,4.15
2019-02-26T20:48:09.206Z,4.87
2019-02-26T20:53:12.682Z,4.03
2019-02-26T20:58:16.155Z,4.53
2019-02-26T21:03:19.629Z,4.77
2019-02-26T21:08:23.104Z,3.17
2019-02-26T21:13:26.572Z,3.75
2019-02-26T21:18:31.250Z,3.40
2019-02-26T21:23:34.776Z,3.10
2019-02-26T21:28:38.244Z,3.37
2019-02-26T21:33:41.718Z,3.42
2019-02-26T21:38:45.189Z,2.95
2019-02-26T21:43:48.662Z,3.75
2019-02-26T21:48:52.138Z,3.35
2019-02-26T21:53:55.614Z,2.92
2019-02-26T21:58:59.718Z,5.58
2019-02-26T22:04:03.933Z,2.33
2019-02-26T22:09:07.778Z,3.15
2019-02-26T22:14:12.890Z,2.62
2019-02-26T22:19:16.368Z,5.33
2019-02-26T22:24:19.848Z,2.65
2019-02-26T22:29:23.314Z,3.63
2019-02-26T22:34:26.787Z,4.73
2019-02-26T22:39:30.261Z,3.22
2019-02-26T22:44:33.738Z,1.95
2019-02-26T22:49:37.211Z,2.77
2019-02-26T22:54:43.109Z,2.77
2019-02-26T22:59:45.888Z,2.33
2019-02-26T23:04:52.559Z,2.42
2019-02-26T23:09:54.629Z,1.95
2019-02-26T23:14:58.109Z,2.95
2019-02-26T23:20:01.735Z,4.85
2019-02-26T23:25:07.733Z,2.47
2019-02-26T23:30:13.812Z,2.50
2019-02-26T23:35:17.357Z,2.23
2019-02-26T23:40:20.887Z,2.60
2019-02-26T23:45:24.868Z,2.25
2019-02-26T23:50:28.405Z,2.05
2019-02-26T23:55:31.940Z,2.07
